Time;durP1;ratioP1;P1;durP2;ratioP2;P2;SDS_P1;SDS_P2;PMS_P1;PMS_P2;Temp;Humidity;BMP_temperature;BMP_pressure;BME280_temperature;BME280_humidity;BME280_pressure;Samples;Min_cycle;Max_cycle;Signal;HPM_P1;HPM_P2
2023/12/11 00:01:22;;;;;;;776.25;715.17;;;8.80;99.90;;;;;;6305907;22;20477;-81
2023/12/11 00:03:47;;;;;;;793.17;730.85;;;8.70;99.90;;;;;;6305828;22;20023;-81
2023/12/11 00:06:13;;;;;;;841.58;769.50;;;8.70;99.90;;;;;;6335031;22;20065;-80
2023/12/11 00:08:39;;;;;;;812.35;746.40;;;8.60;99.90;;;;;;6305449;22;20450;-81
2023/12/11 00:11:05;;;;;;;775.85;714.38;;;8.60;99.90;;;;;;6333857;22;20169;-81
2023/12/11 00:13:31;;;;;;;766.75;706.22;;;8.40;99.90;;;;;;6305139;22;20015;-80
2023/12/11 00:15:57;;;;;;;793.78;730.05;;;8.40;99.90;;;;;;6305514;22;20015;-81
2023/12/11 00:18:22;;;;;;;807.00;740.33;;;8.30;99.90;;;;;;6306460;22;20275;-80
2023/12/11 00:20:48;;;;;;;757.83;697.97;;;8.30;99.90;;;;;;6334295;22;20015;-81
2023/12/11 00:23:14;;;;;;;743.20;684.72;;;8.20;99.90;;;;;;6333103;22;20046;-80
2023/12/11 00:25:45;;;;;;;767.13;706.90;;;8.20;99.90;;;;;;6334126;22;20015;-80
2023/12/11 00:28:11;;;;;;;761.58;701.67;;;8.10;99.90;;;;;;6304864;22;20046;-81
2023/12/11 00:30:37;;;;;;;820.17;751.80;;;8.10;99.90;;;;;;6333059;22;20073;-80
2023/12/11 00:33:03;;;;;;;792.70;726.88;;;8.10;99.90;;;;;;6333568;22;20394;-80
2023/12/11 00:35:28;;;;;;;783.25;720.10;;;8.10;99.90;;;;;;6304686;22;20333;-80
2023/12/11 00:37:54;;;;;;;719.55;663.95;;;8.10;99.90;;;;;;6334334;22;20038;-80
2023/12/11 00:40:20;;;;;;;798.65;731.67;;;8.10;99.90;;;;;;6305510;22;20611;-81
2023/12/11 00:42:45;;;;;;;711.47;656.40;;;8.10;99.90;;;;;;6304036;22;20026;-80
2023/12/11 00:45:13;;;;;;;762.13;702.40;;;8.10;99.90;;;;;;6305014;22;20038;-81
2023/12/11 00:47:39;;;;;;;736.58;678.80;;;8.10;99.90;;;;;;6333859;22;20077;-80
2023/12/11 00:50:05;;;;;;;733.60;675.85;;;8.10;99.90;;;;;;6305493;22;20311;-80
2023/12/11 00:52:31;;;;;;;727.15;671.05;;;8.10;99.90;;;;;;6333371;22;20015;-80
2023/12/11 00:54:56;;;;;;;780.05;716.95;;;8.20;99.90;;;;;;6333740;22;20332;-80
2023/12/11 00:57:22;;;;;;;731.80;673.85;;;8.20;99.90;;;;;;6332006;22;20497;-81
2023/12/11 00:59:48;;;;;;;762.70;702.28;;;8.20;99.90;;;;;;6332033;22;20053;-81
2023/12/11 01:02:13;;;;;;;762.90;702.90;;;8.20;99.90;;;;;;6333877;22;20015;-80
2023/12/11 01:04:39;;;;;;;811.20;744.95;;;8.20;99.90;;;;;;6303752;22;20454;-80
2023/12/11 01:07:05;;;;;;;744.42;685.78;;;8.20;99.90;;;;;;6305864;22;20019;-80
2023/12/11 01:09:31;;;;;;;746.90;687.35;;;8.20;99.90;;;;;;6331050;22;20019;-81
2023/12/11 01:11:56;;;;;;;752.45;692.70;;;8.30;99.90;;;;;;6332953;22;20077;-81
2023/12/11 01:14:22;;;;;;;732.55;675.03;;;8.30;99.90;;;;;;6304581;22;20366;-80
2023/12/11 01:16:48;;;;;;;725.42;669.15;;;8.20;99.90;;;;;;6332859;22;20076;-81
2023/12/11 01:19:14;;;;;;;753.90;694.50;;;8.20;99.90;;;;;;6332625;22;20011;-81
2023/12/11 01:21:39;;;;;;;735.22;676.95;;;8.30;99.90;;;;;;6305329;22;20018;-81
2023/12/11 01:24:05;;;;;;;720.40;663.97;;;8.30;99.90;;;;;;6304996;22;20025;-81
2023/12/11 01:26:31;;;;;;;771.33;710.45;;;8.40;99.90;;;;;;6332208;22;20444;-80
2023/12/11 01:28:56;;;;;;;795.30;728.53;;;8.30;99.90;;;;;;6332012;22;20461;-81
2023/12/11 01:31:22;;;;;;;726.03;669.03;;;8.40;99.90;;;;;;6305508;22;20022;-81
2023/12/11 01:33:48;;;;;;;739.72;678.97;;;8.40;99.90;;;;;;6332113;22;20011;-81
2023/12/11 01:36:14;;;;;;;735.75;677.00;;;8.40;99.90;;;;;;6305580;22;20423;-80
2023/12/11 01:38:39;;;;;;;740.95;682.67;;;8.40;99.90;;;;;;6278267;22;20019;-81
2023/12/11 01:41:05;;;;;;;746.13;687.58;;;8.40;99.90;;;;;;6304869;22;20014;-81
2023/12/11 01:43:31;;;;;;;750.63;691.88;;;8.40;99.90;;;;;;6303605;22;20020;-81
2023/12/11 01:46:11;;;;;;;730.38;673.05;;;8.40;99.90;;;;;;6304591;22;20046;-81
2023/12/11 01:48:37;;;;;;;822.60;753.38;;;8.40;99.90;;;;;;6304999;22;20022;-81
2023/12/11 01:51:05;;;;;;;766.42;705.00;;;8.40;99.90;;;;;;6304706;22;20026;-80
2023/12/11 01:53:32;;;;;;;760.53;700.58;;;8.30;99.90;;;;;;6303979;22;20019;-81
2023/12/11 01:55:58;;;;;;;764.22;703.03;;;8.40;99.90;;;;;;6305070;22;20034;-81
2023/12/11 01:58:24;;;;;;;817.45;751.13;;;8.40;99.90;;;;;;6303747;22;20019;-81
2023/12/11 02:00:51;;;;;;;832.10;763.65;;;8.40;99.90;;;;;;6303826;22;20026;-81
2023/12/11 02:03:18;;;;;;;784.72;721.50;;;8.40;99.90;;;;;;6304797;22;20057;-81
2023/12/11 02:05:44;;;;;;;736.08;677.05;;;8.50;99.90;;;;;;6279120;22;20324;-81
2023/12/11 02:08:10;;;;;;;784.38;721.65;;;8.50;99.90;;;;;;6303688;22;20061;-80
2023/12/11 02:10:36;;;;;;;805.65;740.72;;;8.50;99.90;;;;;;6333055;22;20011;-80
2023/12/11 02:13:03;;;;;;;773.55;712.58;;;8.50;99.90;;;;;;6303934;22;20060;-80
2023/12/11 02:15:44;;;;;;;794.22;730.97;;;8.50;99.90;;;;;;6331708;22;20007;-81
2023/12/11 02:18:12;;;;;;;816.03;749.50;;;8.50;99.90;;;;;;6304802;22;20018;-80
2023/12/11 02:20:39;;;;;;;824.45;757.03;;;8.50;99.90;;;;;;6278641;22;20481;-80
2023/12/11 02:23:09;;;;;;;841.45;769.13;;;8.50;99.90;;;;;;6278036;22;20023;-80
2023/12/11 02:25:36;;;;;;;785.15;723.22;;;8.60;99.90;;;;;;6304729;22;20068;-80
2023/12/11 02:28:03;;;;;;;800.35;735.10;;;8.60;99.90;;;;;;6303472;22;20025;-80
2023/12/11 02:30:41;;;;;;;796.92;732.20;;;8.60;99.90;;;;;;6303982;22;20042;-80
2023/12/11 02:33:07;;;;;;;842.53;772.67;;;8.60;99.90;;;;;;6304614;22;20086;-81
2023/12/11 02:35:33;;;;;;;797.83;734.03;;;8.60;99.90;;;;;;6303019;22;20057;-80
2023/12/11 02:37:58;;;;;;;797.05;732.92;;;8.60;99.90;;;;;;6333084;22;20018;-80
2023/12/11 02:40:24;;;;;;;796.95;732.33;;;8.60;99.90;;;;;;6304808;22;20026;-80
2023/12/11 02:42:50;;;;;;;799.85;734.50;;;8.60;99.90;;;;;;6330747;22;20097;-80
2023/12/11 02:45:16;;;;;;;753.17;693.17;;;8.60;99.90;;;;;;6332780;22;20081;-80
2023/12/11 02:47:42;;;;;;;861.90;787.00;;;8.60;99.90;;;;;;6332050;22;20085;-80
2023/12/11 02:50:08;;;;;;;795.67;729.90;;;8.50;99.90;;;;;;6304082;22;20018;-81
2023/12/11 02:52:33;;;;;;;773.40;712.42;;;8.60;99.90;;;;;;6332114;22;20418;-80
2023/12/11 02:54:59;;;;;;;802.85;737.92;;;8.60;99.90;;;;;;6304125;22;20019;-81
2023/12/11 02:57:25;;;;;;;791.00;726.65;;;8.60;99.90;;;;;;6331063;22;20061;-81
2023/12/11 02:59:51;;;;;;;816.08;749.75;;;8.60;99.90;;;;;;6303196;22;20402;-81
2023/12/11 03:02:16;;;;;;;801.40;736.33;;;8.60;99.90;;;;;;6332906;22;20076;-80
2023/12/11 03:04:42;;;;;;;801.72;737.15;;;8.60;99.90;;;;;;6303159;22;20007;-81
2023/12/11 03:07:08;;;;;;;829.88;762.75;;;8.60;99.90;;;;;;6304502;22;20022;-81
2023/12/11 03:09:34;;;;;;;793.83;729.72;;;8.60;99.90;;;;;;6305889;22;20025;-81
2023/12/11 03:11:59;;;;;;;827.85;759.50;;;8.60;99.90;;;;;;6305904;22;20090;-81
2023/12/11 03:14:25;;;;;;;791.67;728.85;;;8.60;99.90;;;;;;6306962;22;20385;-81
2023/12/11 03:16:51;;;;;;;793.55;729.58;;;8.60;99.90;;;;;;6335038;22;20377;-81
2023/12/11 03:19:17;;;;;;;784.97;722.05;;;8.60;99.90;;;;;;6305647;22;20694;-81
2023/12/11 03:21:43;;;;;;;837.60;766.80;;;8.60;99.90;;;;;;6306652;22;20021;-80
2023/12/11 03:24:09;;;;;;;874.75;795.42;;;8.60;99.90;;;;;;6333265;22;20038;-81
2023/12/11 03:26:34;;;;;;;829.30;759.45;;;8.60;99.90;;;;;;6334692;22;20015;-81
2023/12/11 03:29:00;;;;;;;831.65;761.95;;;8.60;99.90;;;;;;6306251;22;20454;-81
2023/12/11 03:31:26;;;;;;;774.05;712.10;;;8.60;99.90;;;;;;6332799;22;20439;-81
2023/12/11 03:33:51;;;;;;;791.65;726.45;;;8.60;99.90;;;;;;6334726;22;20015;-80
2023/12/11 03:36:17;;;;;;;788.65;724.50;;;8.60;99.90;;;;;;6306326;22;20064;-81
2023/12/11 03:38:43;;;;;;;778.47;716.30;;;8.60;99.90;;;;;;6305024;22;20067;-80
2023/12/11 03:41:09;;;;;;;811.25;744.15;;;8.50;99.90;;;;;;6334736;22;20014;-81
2023/12/11 03:43:34;;;;;;;763.33;701.70;;;8.60;99.90;;;;;;6332259;22;20144;-81
2023/12/11 03:46:03;;;;;;;813.20;746.95;;;8.60;99.90;;;;;;6333638;22;20022;-80
2023/12/11 03:48:29;;;;;;;804.47;738.42;;;8.60;99.90;;;;;;6279683;22;20439;-80
2023/12/11 03:50:56;;;;;;;825.08;756.50;;;8.60;99.90;;;;;;6306740;22;20023;-81
2023/12/11 03:53:21;;;;;;;824.30;757.10;;;8.60;99.90;;;;;;6279548;22;20069;-80
2023/12/11 03:55:47;;;;;;;834.78;761.97;;;8.70;99.90;;;;;;6333737;22;20011;-81
2023/12/11 03:58:13;;;;;;;801.08;735.53;;;8.70;99.90;;;;;;6333504;22;20077;-81
2023/12/11 04:00:39;;;;;;;788.95;726.13;;;8.70;99.90;;;;;;6332041;22;20015;-81
2023/12/11 04:03:05;;;;;;;777.95;715.35;;;8.70;99.90;;;;;;6280279;22;20534;-81
2023/12/11 04:05:31;;;;;;;776.47;713.83;;;8.70;99.90;;;;;;6334128;22;20015;-81
2023/12/11 04:07:56;;;;;;;814.47;748.47;;;8.70;99.90;;;;;;6332569;22;20029;-80
2023/12/11 04:10:23;;;;;;;779.40;715.50;;;8.70;99.90;;;;;;6334255;22;20027;-80
2023/12/11 04:12:49;;;;;;;799.35;733.00;;;8.70;99.90;;;;;;6279061;22;20015;-80
2023/12/11 04:15:15;;;;;;;799.58;733.70;;;8.80;99.90;;;;;;6304575;22;20022;-80
2023/12/11 04:17:42;;;;;;;806.70;739.97;;;8.80;99.90;;;;;;6305808;22;20015;-80
2023/12/11 04:20:09;;;;;;;809.40;743.42;;;8.70;99.90;;;;;;6306223;22;20015;-81
2023/12/11 04:22:35;;;;;;;764.17;702.60;;;8.70;99.90;;;;;;6333090;22;20022;-81
2023/12/11 04:25:00;;;;;;;810.63;741.30;;;8.80;99.90;;;;;;6305466;22;20089;-82
2023/12/11 04:27:26;;;;;;;861.13;786.53;;;8.80;99.90;;;;;;6279071;22;20044;-80
2023/12/11 04:29:52;;;;;;;865.47;790.22;;;8.80;99.90;;;;;;6332904;22;20015;-81
2023/12/11 04:32:17;;;;;;;810.90;744.97;;;8.80;99.90;;;;;;6305670;22;20086;-80
2023/12/11 04:34:43;;;;;;;808.20;741.83;;;8.80;99.90;;;;;;6304663;22;20052;-81
2023/12/11 04:37:09;;;;;;;784.47;721.58;;;8.80;99.90;;;;;;6333731;22;20019;-81
2023/12/11 04:39:35;;;;;;;840.33;770.53;;;8.80;99.90;;;;;;6305844;22;20018;-81
2023/12/11 04:42:00;;;;;;;826.00;756.53;;;8.80;99.90;;;;;;6305015;22;20018;-81
2023/12/11 04:44:26;;;;;;;809.85;745.10;;;8.80;99.90;;;;;;6332207;22;20373;-81
2023/12/11 04:46:52;;;;;;;756.47;696.45;;;8.80;99.90;;;;;;6333937;22;20388;-81
2023/12/11 04:49:18;;;;;;;808.08;741.72;;;8.80;99.90;;;;;;6304383;22;20451;-81
2023/12/11 04:51:43;;;;;;;817.45;749.35;;;8.80;99.90;;;;;;6333600;22;20023;-81
2023/12/11 04:54:09;;;;;;;789.67;726.10;;;8.80;99.90;;;;;;6333872;22;20398;-81
2023/12/11 04:56:35;;;;;;;833.72;765.08;;;8.80;99.90;;;;;;6303897;22;20447;-80
2023/12/11 04:59:01;;;;;;;796.80;731.33;;;8.80;99.90;;;;;;6299277;22;20019;-80
2023/12/11 05:01:27;;;;;;;808.88;742.83;;;8.80;99.90;;;;;;6301939;22;20015;-81
2023/12/11 05:03:53;;;;;;;788.95;726.42;;;8.80;99.90;;;;;;6299703;22;20015;-80
2023/12/11 05:06:19;;;;;;;769.08;707.55;;;8.80;99.90;;;;;;6300931;22;20019;-81
2023/12/11 05:08:45;;;;;;;789.00;726.33;;;8.80;99.90;;;;;;6299616;22;20164;-81
2023/12/11 05:11:11;;;;;;;825.15;756.70;;;8.80;99.90;;;;;;6300117;22;20022;-80
2023/12/11 05:13:37;;;;;;;834.00;765.40;;;8.80;99.90;;;;;;6300528;22;20065;-81
2023/12/11 05:16:03;;;;;;;807.58;740.58;;;8.80;99.90;;;;;;6300256;22;20455;-81
2023/12/11 05:18:29;;;;;;;816.75;750.38;;;8.80;99.90;;;;;;6299285;22;20015;-80
2023/12/11 05:20:55;;;;;;;801.05;736.55;;;8.80;99.90;;;;;;6300610;22;20027;-81
2023/12/11 05:23:21;;;;;;;830.10;761.50;;;8.70;99.90;;;;;;6300429;22;20542;-81
2023/12/11 05:25:47;;;;;;;785.65;721.97;;;8.70;99.90;;;;;;6299041;22;20015;-81
2023/12/11 05:28:13;;;;;;;805.30;739.30;;;8.70;99.90;;;;;;6301706;22;20016;-80
2023/12/11 05:30:38;;;;;;;803.72;738.42;;;8.70;99.90;;;;;;6301031;22;20017;-81
2023/12/11 05:33:04;;;;;;;802.33;737.28;;;8.80;99.90;;;;;;6301500;22;20443;-80
2023/12/11 05:35:30;;;;;;;796.47;732.25;;;8.80;99.90;;;;;;6299932;22;20058;-81
2023/12/11 05:37:57;;;;;;;815.60;749.00;;;8.70;99.90;;;;;;6301068;22;20046;-81
2023/12/11 05:40:23;;;;;;;802.28;737.63;;;8.70;99.90;;;;;;6302426;22;20027;-81
2023/12/11 05:42:49;;;;;;;812.97;747.17;;;8.70;99.90;;;;;;6298976;22;20019;-80
2023/12/11 05:45:15;;;;;;;821.53;753.30;;;8.70;99.90;;;;;;6298808;22;20024;-80
2023/12/11 05:47:41;;;;;;;832.50;763.80;;;8.80;99.90;;;;;;6299868;22;20388;-81
2023/12/11 05:50:07;;;;;;;842.03;773.42;;;8.80;99.90;;;;;;6301531;22;20018;-80
2023/12/11 05:52:32;;;;;;;790.40;726.78;;;8.80;99.90;;;;;;6273335;22;20015;-80
2023/12/11 05:54:58;;;;;;;809.55;744.58;;;8.80;99.90;;;;;;6301686;22;20030;-81
2023/12/11 05:57:24;;;;;;;788.05;723.55;;;8.80;99.90;;;;;;6303032;22;20084;-80
2023/12/11 05:59:51;;;;;;;784.92;722.42;;;8.80;99.90;;;;;;6331422;22;20058;-80
2023/12/11 06:02:16;;;;;;;786.60;724.63;;;8.80;99.90;;;;;;6332852;22;20023;-80
2023/12/11 06:04:42;;;;;;;775.25;714.25;;;8.80;99.90;;;;;;6305080;22;20026;-80
2023/12/11 06:07:08;;;;;;;790.85;727.00;;;8.80;99.90;;;;;;6333005;22;20013;-81
2023/12/11 06:09:33;;;;;;;814.05;748.40;;;8.70;99.90;;;;;;6304901;22;20027;-81
2023/12/11 06:11:59;;;;;;;790.00;727.03;;;8.80;99.90;;;;;;6306231;22;20046;-80
2023/12/11 06:14:25;;;;;;;801.50;736.72;;;8.70;99.90;;;;;;6330860;22;20080;-81
2023/12/11 06:16:51;;;;;;;799.45;735.05;;;8.70;99.90;;;;;;6333687;22;20087;-80
2023/12/11 06:19:16;;;;;;;866.08;794.38;;;8.70;99.90;;;;;;6304465;22;20015;-80
2023/12/11 06:21:43;;;;;;;816.00;750.17;;;8.70;99.90;;;;;;6277412;22;20048;-80
2023/12/11 06:24:08;;;;;;;829.67;761.65;;;8.70;99.90;;;;;;6333098;22;20308;-80
2023/12/11 06:26:35;;;;;;;780.10;717.50;;;8.70;99.90;;;;;;6332735;22;20025;-80
2023/12/11 06:29:01;;;;;;;859.28;787.50;;;8.70;99.90;;;;;;6331621;22;20074;-80
2023/12/11 06:31:27;;;;;;;797.13;732.90;;;8.70;99.90;;;;;;6279090;22;20015;-80
2023/12/11 06:33:54;;;;;;;793.42;729.92;;;8.70;99.90;;;;;;6332820;22;20401;-81
2023/12/11 06:36:21;;;;;;;803.58;738.30;;;8.70;99.90;;;;;;6304514;22;20018;-80
2023/12/11 06:38:50;;;;;;;738.92;680.95;;;8.70;99.90;;;;;;6303709;22;20044;-81
2023/12/11 06:41:17;;;;;;;794.60;730.03;;;8.60;99.90;;;;;;6304631;22;20105;-80
2023/12/11 06:43:46;;;;;;;796.03;732.13;;;8.60;99.90;;;;;;6330831;22;20015;-81
2023/12/11 06:46:12;;;;;;;780.38;718.70;;;8.60;99.90;;;;;;6305086;22;20443;-80
2023/12/11 06:48:38;;;;;;;737.85;679.92;;;8.50;99.90;;;;;;6302830;22;20017;-80
2023/12/11 06:51:04;;;;;;;724.15;667.92;;;8.50;99.90;;;;;;6304937;22;20034;-80
2023/12/11 06:53:30;;;;;;;718.15;662.33;;;8.60;99.90;;;;;;6332186;22;20021;-81
2023/12/11 06:55:55;;;;;;;743.47;684.72;;;8.60;99.90;;;;;;6332008;22;20025;-80
2023/12/11 06:58:21;;;;;;;738.40;681.95;;;8.60;99.90;;;;;;6298733;22;20831;-81
2023/12/11 07:00:47;;;;;;;730.38;673.80;;;8.50;99.90;;;;;;6298605;22;20021;-80
2023/12/11 07:03:13;;;;;;;741.22;683.35;;;8.50;99.90;;;;;;6300574;22;20086;-81
2023/12/11 07:05:43;;;;;;;721.75;665.85;;;8.50;99.90;;;;;;6299195;22;20348;-81
2023/12/11 07:08:09;;;;;;;733.60;676.25;;;8.60;99.90;;;;;;6273506;22;20381;-81
2023/12/11 07:10:34;;;;;;;729.53;672.80;;;8.50;99.90;;;;;;6300097;22;20018;-81
2023/12/11 07:13:00;;;;;;;743.60;686.78;;;8.60;99.90;;;;;;6298427;22;20650;-81
2023/12/11 07:15:26;;;;;;;734.90;677.33;;;8.50;99.90;;;;;;6300700;22;20016;-81
2023/12/11 07:17:52;;;;;;;744.90;687.03;;;8.60;99.90;;;;;;6297888;22;20025;-80
2023/12/11 07:20:17;;;;;;;779.90;718.08;;;8.60;99.90;;;;;;6299483;22;20391;-80
2023/12/11 07:22:45;;;;;;;750.67;692.50;;;8.60;99.90;;;;;;6300583;22;20019;-81
2023/12/11 07:25:12;;;;;;;740.45;683.38;;;8.60;99.90;;;;;;6300291;22;20016;-81
2023/12/11 07:27:41;;;;;;;753.03;694.55;;;8.50;99.90;;;;;;6301400;22;20015;-80
2023/12/11 07:30:07;;;;;;;725.53;670.28;;;8.60;99.90;;;;;;6298234;22;20046;-81
2023/12/11 07:32:33;;;;;;;738.13;681.53;;;8.60;99.90;;;;;;6298207;22;20658;-81
2023/12/11 07:35:00;;;;;;;770.70;710.38;;;8.60;99.90;;;;;;6300468;22;20022;-81
2023/12/11 07:37:26;;;;;;;747.65;690.05;;;8.60;99.90;;;;;;6298089;22;20161;-81
2023/12/11 07:39:51;;;;;;;756.17;696.47;;;8.60;99.90;;;;;;6299408;22;20043;-81
2023/12/11 07:42:17;;;;;;;749.08;690.28;;;8.60;99.90;;;;;;6301060;22;20071;-81
2023/12/11 07:44:43;;;;;;;757.10;698.17;;;8.60;99.90;;;;;;6298591;22;20353;-81
2023/12/11 07:47:08;;;;;;;760.13;701.60;;;8.60;99.90;;;;;;6298759;22;20076;-81
2023/12/11 07:49:34;;;;;;;747.00;690.03;;;8.60;99.90;;;;;;6298783;22;20086;-80
2023/12/11 07:52:02;;;;;;;757.20;699.45;;;8.50;99.90;;;;;;6300576;22;20022;-81
2023/12/11 07:54:28;;;;;;;756.10;698.42;;;8.60;99.90;;;;;;6298688;22;20026;-81
2023/12/11 07:56:53;;;;;;;712.88;658.25;;;8.50;99.90;;;;;;6302606;22;20019;-81
2023/12/11 07:59:19;;;;;;;751.88;694.10;;;8.50;99.90;;;;;;6328426;22;20510;-81
2023/12/11 08:01:45;;;;;;;719.63;664.40;;;8.50;99.90;;;;;;6306244;22;20284;-81
2023/12/11 08:04:12;;;;;;;769.80;709.10;;;8.50;99.90;;;;;;6305947;22;20053;-80
2023/12/11 08:06:41;;;;;;;735.35;678.40;;;8.60;99.90;;;;;;6332735;22;20446;-80
2023/12/11 08:09:08;;;;;;;770.55;710.40;;;8.50;99.90;;;;;;6333923;22;20064;-81
2023/12/11 08:11:34;;;;;;;784.58;722.35;;;8.60;99.90;;;;;;6305601;22;20023;-81
2023/12/11 08:14:00;;;;;;;752.55;694.28;;;8.60;99.90;;;;;;6304066;22;20056;-80
2023/12/11 08:16:25;;;;;;;752.60;695.10;;;8.60;99.90;;;;;;6333469;22;20469;-81
2023/12/11 08:18:51;;;;;;;725.25;669.88;;;8.60;99.90;;;;;;6305996;22;20339;-81
2023/12/11 08:21:17;;;;;;;742.03;684.67;;;8.60;99.90;;;;;;6305263;22;20026;-81
2023/12/11 08:23:44;;;;;;;737.75;681.50;;;8.60;99.90;;;;;;6305179;22;20082;-81
2023/12/11 08:26:14;;;;;;;751.42;694.28;;;8.60;99.90;;;;;;6306056;22;20047;-80
2023/12/11 08:28:40;;;;;;;761.33;702.67;;;8.60;99.90;;;;;;6303415;22;20560;-81
2023/12/11 08:31:06;;;;;;;751.15;693.75;;;8.60;99.90;;;;;;6305952;22;20458;-81
2023/12/11 08:33:32;;;;;;;731.72;676.33;;;8.60;99.90;;;;;;6303674;22;20092;-81
2023/12/11 08:35:57;;;;;;;760.22;701.65;;;8.60;99.90;;;;;;6279351;22;20023;-81
2023/12/11 08:38:23;;;;;;;755.45;698.38;;;8.60;99.90;;;;;;6332692;22;20019;-81
2023/12/11 08:40:50;;;;;;;747.17;689.83;;;8.60;99.90;;;;;;6332096;22;20096;-81
2023/12/11 08:43:17;;;;;;;753.90;695.85;;;8.60;99.90;;;;;;6305209;22;20093;-81
2023/12/11 08:45:43;;;;;;;799.90;738.03;;;8.60;99.90;;;;;;6332612;22;20014;-82
2023/12/11 08:48:09;;;;;;;746.88;690.08;;;8.70;99.90;;;;;;6304757;22;20343;-82
2023/12/11 08:50:35;;;;;;;793.25;731.92;;;8.70;99.90;;;;;;6305441;22;20102;-81
2023/12/11 08:53:01;;;;;;;803.45;739.63;;;8.70;99.90;;;;;;6305303;22;20023;-81
2023/12/11 08:55:28;;;;;;;745.53;688.78;;;8.70;99.90;;;;;;6304232;22;20030;-81
2023/12/11 08:57:54;;;;;;;753.38;696.15;;;8.70;99.90;;;;;;6298838;22;20385;-81
2023/12/11 09:00:23;;;;;;;762.50;704.05;;;8.70;99.90;;;;;;6299832;22;20050;-82
2023/12/11 09:02:51;;;;;;;784.13;723.70;;;8.70;99.90;;;;;;6300410;22;20098;-80
2023/12/11 09:05:17;;;;;;;769.22;709.67;;;8.70;99.90;;;;;;6300301;22;20026;-79
2023/12/11 09:07:43;;;;;;;802.90;739.88;;;8.70;99.90;;;;;;6301498;22;20038;-79
2023/12/11 09:10:09;;;;;;;789.72;728.33;;;8.70;99.90;;;;;;6299426;22;20336;-79
2023/12/11 09:12:36;;;;;;;749.17;691.50;;;8.70;99.90;;;;;;6300219;22;20015;-79
2023/12/11 09:15:04;;;;;;;826.03;759.55;;;8.70;99.90;;;;;;6298640;22;20011;-80
2023/12/11 09:17:29;;;;;;;808.35;745.17;;;8.80;99.90;;;;;;6298778;22;20023;-80
2023/12/11 09:19:55;;;;;;;765.67;706.00;;;8.80;99.90;;;;;;6299029;22;20015;-79
2023/12/11 09:22:21;;;;;;;774.63;715.70;;;8.80;99.90;;;;;;6300230;22;20030;-79
2023/12/11 09:24:47;;;;;;;769.03;709.75;;;8.80;99.90;;;;;;6298352;22;20011;-79
2023/12/11 09:27:12;;;;;;;820.08;754.88;;;8.80;99.90;;;;;;6302019;22;20038;-79
2023/12/11 09:29:38;;;;;;;815.15;750.05;;;8.80;99.90;;;;;;6298535;22;20351;-80
2023/12/11 09:32:04;;;;;;;831.95;764.70;;;8.80;99.90;;;;;;6300562;22;20027;-80
2023/12/11 09:34:30;;;;;;;766.47;705.72;;;8.90;99.90;;;;;;6274107;22;20076;-80
2023/12/11 09:36:57;;;;;;;791.30;729.15;;;8.90;99.90;;;;;;6298986;22;20023;-80
2023/12/11 09:39:23;;;;;;;815.53;751.42;;;8.90;99.90;;;;;;6299427;22;20344;-80
2023/12/11 09:41:49;;;;;;;832.30;764.75;;;8.80;99.90;;;;;;6301739;22;20019;-80
2023/12/11 09:44:17;;;;;;;797.38;734.28;;;8.90;99.90;;;;;;6299608;22;20019;-80
2023/12/11 09:47:01;;;;;;;814.72;750.97;;;8.90;99.90;;;;;;6299430;22;20023;-79
2023/12/11 09:49:28;;;;;;;798.60;734.83;;;8.90;99.90;;;;;;6273934;22;20023;-79
2023/12/11 09:51:53;;;;;;;823.10;758.00;;;8.90;99.90;;;;;;6298720;22;20022;-79
2023/12/11 09:54:19;;;;;;;812.08;747.22;;;9.00;99.90;;;;;;6299895;22;20015;-80
2023/12/11 09:56:46;;;;;;;834.15;766.78;;;9.00;99.90;;;;;;6299494;22;20019;-80
2023/12/11 09:59:13;;;;;;;923.25;844.38;;;9.10;99.90;;;;;;6297752;22;20016;-80
2023/12/11 10:01:39;;;;;;;867.08;795.03;;;9.10;99.90;;;;;;6299169;22;20034;-80
2023/12/11 10:04:06;;;;;;;745.60;688.38;;;9.20;99.90;;;;;;6299028;22;20019;-80
2023/12/11 10:06:32;;;;;;;794.90;729.13;;;9.10;99.90;;;;;;6300942;22;20054;-80
2023/12/11 10:08:58;;;;;;;728.42;673.45;;;9.20;99.90;;;;;;6299217;22;20099;-86
2023/12/11 10:11:26;;;;;;;747.47;690.25;;;9.10;99.90;;;;;;6275261;22;20027;-83
2023/12/11 10:13:52;;;;;;;731.63;676.72;;;9.10;99.90;;;;;;6297282;22;20030;-84
2023/12/11 10:16:32;;;;;;;751.28;693.13;;;9.20;99.90;;;;;;6299750;22;20073;-83
2023/12/11 10:19:00;;;;;;;821.22;753.63;;;9.10;99.90;;;;;;6298773;22;20436;-84
2023/12/11 10:21:34;;;;;;;795.70;731.00;;;9.20;99.90;;;;;;6299379;22;20015;-84
2023/12/11 10:24:04;;;;;;;802.15;738.80;;;9.20;99.90;;;;;;6299361;22;20015;-82
2023/12/11 10:26:36;;;;;;;753.83;695.40;;;9.20;99.90;;;;;;6298089;22;20080;-82
2023/12/11 10:29:22;;;;;;;842.22;772.05;;;9.30;99.90;;;;;;6298528;22;20015;-83
2023/12/11 10:31:49;;;;;;;976.17;869.65;;;9.20;99.90;;;;;;6273697;22;20501;-84
2023/12/11 10:34:15;;;;;;;839.88;769.58;;;9.20;99.90;;;;;;6298114;22;20015;-82
2023/12/11 10:36:49;;;;;;;886.10;809.55;;;9.20;99.90;;;;;;6299217;22;20069;-82
2023/12/11 10:39:15;;;;;;;828.97;761.80;;;9.20;99.90;;;;;;6298864;22;20098;-83
2023/12/11 10:41:44;;;;;;;816.45;749.35;;;9.20;99.90;;;;;;6272549;22;20153;-84
2023/12/11 10:44:21;;;;;;;716.45;662.13;;;9.20;99.90;;;;;;6298024;22;20082;-82
2023/12/11 10:46:50;;;;;;;710.00;656.50;;;9.20;99.90;;;;;;6298868;22;20022;-82
2023/12/11 10:49:19;;;;;;;833.58;764.60;;;9.10;99.90;;;;;;6298793;22;20435;-83
2023/12/11 10:51:46;;;;;;;746.78;689.45;;;9.20;99.90;;;;;;6298842;22;20012;-83
2023/12/11 10:54:12;;;;;;;718.10;663.38;;;9.20;99.90;;;;;;6298961;22;20022;-82
2023/12/11 10:56:43;;;;;;;842.85;771.45;;;9.10;99.90;;;;;;6298854;22;20022;-82
2023/12/11 10:59:11;;;;;;;701.67;648.35;;;9.20;99.90;;;;;;6272608;22;20029;-82
2023/12/11 11:01:38;;;;;;;752.45;693.95;;;9.20;99.90;;;;;;6297623;22;20022;-82
2023/12/11 11:04:08;;;;;;;709.92;655.28;;;9.20;99.90;;;;;;6299336;22;20811;-82
2023/12/11 11:06:40;;;;;;;1103.40;897.47;;;9.20;99.90;;;;;;6301162;22;20045;-82
2023/12/11 11:09:13;;;;;;;831.50;760.97;;;9.20;99.90;;;;;;6298856;22;20082;-81
2023/12/11 11:11:45;;;;;;;786.33;723.00;;;9.20;99.90;;;;;;6298150;22;20015;-81
2023/12/11 11:14:44;;;;;;;788.38;726.92;;;9.20;99.90;;;;;;6297300;22;20137;-81
2023/12/11 11:17:09;;;;;;;762.35;701.65;;;9.20;99.90;;;;;;6298670;22;20031;-80
2023/12/11 11:19:35;;;;;;;745.30;687.03;;;9.30;99.90;;;;;;6299457;22;20019;-81
2023/12/11 11:22:07;;;;;;;791.40;728.22;;;9.20;99.90;;;;;;6299544;22;20022;-81
2023/12/11 11:24:34;;;;;;;856.75;781.85;;;9.30;99.90;;;;;;6300668;22;20098;-82
2023/12/11 11:27:01;;;;;;;904.38;824.78;;;9.20;99.90;;;;;;6299862;22;20021;-81
2023/12/11 11:29:41;;;;;;;801.70;737.13;;;9.20;99.90;;;;;;6271722;22;20114;-81
2023/12/11 11:32:07;;;;;;;803.25;737.50;;;9.20;99.90;;;;;;6301584;22;20022;-81
2023/12/11 11:34:44;;;;;;;855.92;785.15;;;9.20;99.90;;;;;;6302740;22;20102;-81
2023/12/11 11:37:17;;;;;;;845.65;772.72;;;9.20;99.90;;;;;;6300312;22;20025;-81
2023/12/11 11:40:00;;;;;;;942.42;848.85;;;9.20;99.90;;;;;;6275179;22;20019;-81
2023/12/11 11:42:31;;;;;;;826.97;757.20;;;9.30;99.90;;;;;;6301027;22;20355;-81
2023/12/11 11:44:59;;;;;;;919.05;833.92;;;9.30;99.90;;;;;;6301083;22;20046;-81
2023/12/11 11:47:26;;;;;;;859.88;784.58;;;9.20;99.90;;;;;;6275478;22;20054;-81
2023/12/11 11:49:53;;;;;;;838.60;767.90;;;9.20;99.90;;;;;;6300622;22;20022;-81
2023/12/11 11:52:27;;;;;;;798.25;735.75;;;9.20;99.90;;;;;;6300923;22;20015;-81
2023/12/11 11:54:59;;;;;;;896.90;820.58;;;9.20;99.90;;;;;;6301534;22;20011;-81
2023/12/11 11:57:28;;;;;;;873.42;801.00;;;9.20;99.90;;;;;;6304758;22;20027;-82
2023/12/11 11:59:54;;;;;;;841.17;771.90;;;9.10;99.90;;;;;;6333296;22;20011;-81
2023/12/11 12:02:22;;;;;;;829.40;759.65;;;9.10;99.90;;;;;;6307051;22;20333;-81
2023/12/11 12:04:48;;;;;;;921.08;839.75;;;9.10;99.90;;;;;;6279367;22;20019;-81
2023/12/11 12:07:14;;;;;;;801.80;738.55;;;9.10;99.90;;;;;;6306827;22;20030;-81
2023/12/11 12:09:40;;;;;;;838.53;768.90;;;9.10;99.90;;;;;;6333584;22;20086;-81
2023/12/11 12:12:13;;;;;;;879.15;803.47;;;9.10;99.90;;;;;;6305767;22;20063;-82
2023/12/11 12:14:39;;;;;;;852.10;781.92;;;9.10;99.90;;;;;;6304566;22;20442;-81
2023/12/11 12:17:10;;;;;;;805.35;741.47;;;9.10;99.90;;;;;;6306410;22;20011;-81